sensor_id;sensor_type;location;lat;lon;timestamp;P1;durP1;ratioP1;P2;durP2;ratioP2
11709;SDS011;5911;51.036;6.972;2023-04-01T00:00:53;1.10;;;0.60;;
11709;SDS011;5911;51.036;6.972;2023-04-01T00:03:22;0.90;;;0.43;;
11709;SDS011;5911;51.036;6.972;2023-04-01T00:05:50;0.30;;;0.30;;
11709;SDS011;5911;51.036;6.972;2023-04-01T00:08:18;0.73;;;0.50;;
11709;SDS011;5911;51.036;6.972;2023-04-01T00:10:46;1.60;;;0.73;;
11709;SDS011;5911;51.036;6.972;2023-04-01T00:13:14;1.17;;;0.60;;
11709;SDS011;5911;51.036;6.972;2023-04-01T00:15:43;0.80;;;0.50;;
11709;SDS011;5911;51.036;6.972;2023-04-01T00:18:12;1.57;;;0.60;;
11709;SDS011;5911;51.036;6.972;2023-04-01T00:20:43;1.33;;;0.30;;
11709;SDS011;5911;51.036;6.972;2023-04-01T00:23:11;0.77;;;0.43;;
11709;SDS011;5911;51.036;6.972;2023-04-01T00:25:39;3.27;;;0.80;;
11709;SDS011;5911;51.036;6.972;2023-04-01T00:28:07;1.80;;;0.60;;
11709;SDS011;5911;51.036;6.972;2023-04-01T00:30:35;1.00;;;0.50;;
11709;SDS011;5911;51.036;6.972;2023-04-01T00:33:03;2.43;;;0.50;;
11709;SDS011;5911;51.036;6.972;2023-04-01T00:35:32;0.50;;;0.50;;
11709;SDS011;5911;51.036;6.972;2023-04-01T00:38:00;1.63;;;0.40;;
11709;SDS011;5911;51.036;6.972;2023-04-01T00:40:30;2.03;;;0.60;;
11709;SDS011;5911;51.036;6.972;2023-04-01T00:42:59;1.47;;;0.57;;
11709;SDS011;5911;51.036;6.972;2023-04-01T00:45:29;1.27;;;0.60;;
11709;SDS011;5911;51.036;6.972;2023-04-01T00:48:00;0.50;;;0.50;;
11709;SDS011;5911;51.036;6.972;2023-04-01T00:50:33;0.47;;;0.47;;
11709;SDS011;5911;51.036;6.972;2023-04-01T00:53:03;0.70;;;0.50;;
11709;SDS011;5911;51.036;6.972;2023-04-01T00:55:33;1.20;;;0.70;;
11709;SDS011;5911;51.036;6.972;2023-04-01T00:58:05;1.97;;;0.50;;
11709;SDS011;5911;51.036;6.972;2023-04-01T01:00:36;1.80;;;0.57;;
11709;SDS011;5911;51.036;6.972;2023-04-01T01:03:05;1.23;;;0.47;;
11709;SDS011;5911;51.036;6.972;2023-04-01T01:05:38;0.63;;;0.50;;
11709;SDS011;5911;51.036;6.972;2023-04-01T01:08:20;1.97;;;0.47;;
11709;SDS011;5911;51.036;6.972;2023-04-01T01:10:57;3.20;;;0.60;;
11709;SDS011;5911;51.036;6.972;2023-04-01T01:13:26;1.03;;;0.60;;
11709;SDS011;5911;51.036;6.972;2023-04-01T01:16:03;2.10;;;0.40;;
11709;SDS011;5911;51.036;6.972;2023-04-01T01:18:38;0.40;;;0.30;;
11709;SDS011;5911;51.036;6.972;2023-04-01T01:24:27;1.90;;;0.50;;
11709;SDS011;5911;51.036;6.972;2023-04-01T01:27:05;0.70;;;0.33;;
11709;SDS011;5911;51.036;6.972;2023-04-01T01:32:53;0.93;;;0.40;;
11709;SDS011;5911;51.036;6.972;2023-04-01T01:35:30;0.87;;;0.40;;
11709;SDS011;5911;51.036;6.972;2023-04-01T01:38:05;0.73;;;0.40;;
11709;SDS011;5911;51.036;6.972;2023-04-01T01:40:39;0.43;;;0.40;;
11709;SDS011;5911;51.036;6.972;2023-04-01T01:43:10;0.70;;;0.43;;
11709;SDS011;5911;51.036;6.972;2023-04-01T01:45:43;1.23;;;0.50;;
11709;SDS011;5911;51.036;6.972;2023-04-01T01:48:14;0.77;;;0.40;;
11709;SDS011;5911;51.036;6.972;2023-04-01T01:50:45;1.43;;;0.50;;
11709;SDS011;5911;51.036;6.972;2023-04-01T01:53:15;0.60;;;0.40;;
11709;SDS011;5911;51.036;6.972;2023-04-01T01:55:43;0.73;;;0.40;;
11709;SDS011;5911;51.036;6.972;2023-04-01T01:58:16;0.63;;;0.40;;
11709;SDS011;5911;51.036;6.972;2023-04-01T02:00:48;1.10;;;0.40;;
11709;SDS011;5911;51.036;6.972;2023-04-01T02:03:18;0.63;;;0.23;;
11709;SDS011;5911;51.036;6.972;2023-04-01T02:05:52;1.87;;;0.53;;
11709;SDS011;5911;51.036;6.972;2023-04-01T02:08:22;1.77;;;0.80;;
11709;SDS011;5911;51.036;6.972;2023-04-01T02:10:55;1.47;;;0.50;;
11709;SDS011;5911;51.036;6.972;2023-04-01T02:13:29;0.57;;;0.40;;
11709;SDS011;5911;51.036;6.972;2023-04-01T02:16:02;0.27;;;0.27;;
11709;SDS011;5911;51.036;6.972;2023-04-01T02:18:38;1.13;;;0.33;;
11709;SDS011;5911;51.036;6.972;2023-04-01T02:21:09;2.13;;;0.40;;
11709;SDS011;5911;51.036;6.972;2023-04-01T02:23:38;0.77;;;0.40;;
11709;SDS011;5911;51.036;6.972;2023-04-01T02:26:07;0.80;;;0.30;;
11709;SDS011;5911;51.036;6.972;2023-04-01T02:28:38;0.30;;;0.30;;
11709;SDS011;5911;51.036;6.972;2023-04-01T02:31:08;0.70;;;0.50;;
11709;SDS011;5911;51.036;6.972;2023-04-01T02:33:38;0.50;;;0.33;;
11709;SDS011;5911;51.036;6.972;2023-04-01T02:36:11;0.47;;;0.40;;
11709;SDS011;5911;51.036;6.972;2023-04-01T02:38:40;1.10;;;0.50;;
11709;SDS011;5911;51.036;6.972;2023-04-01T02:41:09;0.40;;;0.37;;
11709;SDS011;5911;51.036;6.972;2023-04-01T02:43:36;1.47;;;0.63;;
11709;SDS011;5911;51.036;6.972;2023-04-01T02:46:04;2.10;;;0.27;;
11709;SDS011;5911;51.036;6.972;2023-04-01T02:48:32;0.70;;;0.60;;
11709;SDS011;5911;51.036;6.972;2023-04-01T02:51:00;2.67;;;0.60;;
11709;SDS011;5911;51.036;6.972;2023-04-01T02:53:30;0.93;;;0.50;;
11709;SDS011;5911;51.036;6.972;2023-04-01T02:55:57;1.47;;;0.40;;
11709;SDS011;5911;51.036;6.972;2023-04-01T02:58:25;0.47;;;0.40;;
11709;SDS011;5911;51.036;6.972;2023-04-01T03:00:53;0.93;;;0.30;;
11709;SDS011;5911;51.036;6.972;2023-04-01T03:03:21;1.67;;;0.73;;
11709;SDS011;5911;51.036;6.972;2023-04-01T03:05:49;0.83;;;0.53;;
11709;SDS011;5911;51.036;6.972;2023-04-01T03:08:18;2.57;;;0.73;;
11709;SDS011;5911;51.036;6.972;2023-04-01T03:10:47;1.00;;;0.60;;
11709;SDS011;5911;51.036;6.972;2023-04-01T03:13:15;1.70;;;0.50;;
11709;SDS011;5911;51.036;6.972;2023-04-01T03:15:43;1.20;;;0.50;;
11709;SDS011;5911;51.036;6.972;2023-04-01T03:18:11;0.73;;;0.50;;
11709;SDS011;5911;51.036;6.972;2023-04-01T03:20:38;1.60;;;0.63;;
11709;SDS011;5911;51.036;6.972;2023-04-01T03:23:06;0.50;;;0.40;;
11709;SDS011;5911;51.036;6.972;2023-04-01T03:25:35;0.67;;;0.50;;
11709;SDS011;5911;51.036;6.972;2023-04-01T03:28:04;0.30;;;0.30;;
11709;SDS011;5911;51.036;6.972;2023-04-01T03:30:32;0.93;;;0.53;;
11709;SDS011;5911;51.036;6.972;2023-04-01T03:33:00;1.30;;;0.60;;
11709;SDS011;5911;51.036;6.972;2023-04-01T03:35:30;2.00;;;0.60;;
11709;SDS011;5911;51.036;6.972;2023-04-01T03:37:58;1.33;;;0.40;;
11709;SDS011;5911;51.036;6.972;2023-04-01T03:40:26;0.50;;;0.40;;
11709;SDS011;5911;51.036;6.972;2023-04-01T03:42:54;1.60;;;0.37;;
11709;SDS011;5911;51.036;6.972;2023-04-01T03:45:23;0.30;;;0.30;;
11709;SDS011;5911;51.036;6.972;2023-04-01T03:47:51;0.30;;;0.30;;
11709;SDS011;5911;51.036;6.972;2023-04-01T03:50:20;0.60;;;0.47;;
11709;SDS011;5911;51.036;6.972;2023-04-01T03:52:48;0.23;;;0.20;;
11709;SDS011;5911;51.036;6.972;2023-04-01T03:55:16;0.70;;;0.33;;
11709;SDS011;5911;51.036;6.972;2023-04-01T03:57:46;2.43;;;0.43;;
11709;SDS011;5911;51.036;6.972;2023-04-01T04:00:17;0.40;;;0.40;;
11709;SDS011;5911;51.036;6.972;2023-04-01T04:02:53;0.20;;;0.20;;
11709;SDS011;5911;51.036;6.972;2023-04-01T04:05:26;0.47;;;0.40;;
11709;SDS011;5911;51.036;6.972;2023-04-01T04:07:55;1.47;;;0.40;;
11709;SDS011;5911;51.036;6.972;2023-04-01T04:10:22;1.13;;;0.23;;
11709;SDS011;5911;51.036;6.972;2023-04-01T04:12:51;0.50;;;0.23;;
11709;SDS011;5911;51.036;6.972;2023-04-01T04:15:21;1.53;;;0.43;;
11709;SDS011;5911;51.036;6.972;2023-04-01T04:17:50;0.53;;;0.40;;
11709;SDS011;5911;51.036;6.972;2023-04-01T04:20:20;0.47;;;0.20;;
11709;SDS011;5911;51.036;6.972;2023-04-01T04:22:48;0.50;;;0.30;;
11709;SDS011;5911;51.036;6.972;2023-04-01T04:25:16;1.23;;;0.40;;
11709;SDS011;5911;51.036;6.972;2023-04-01T04:27:43;0.30;;;0.30;;
11709;SDS011;5911;51.036;6.972;2023-04-01T04:30:12;0.90;;;0.43;;
11709;SDS011;5911;51.036;6.972;2023-04-01T04:32:41;0.27;;;0.27;;
11709;SDS011;5911;51.036;6.972;2023-04-01T04:35:12;0.33;;;0.33;;
11709;SDS011;5911;51.036;6.972;2023-04-01T04:37:39;1.33;;;0.63;;
11709;SDS011;5911;51.036;6.972;2023-04-01T04:40:07;0.73;;;0.30;;
11709;SDS011;5911;51.036;6.972;2023-04-01T04:42:36;0.20;;;0.20;;
11709;SDS011;5911;51.036;6.972;2023-04-01T04:45:08;1.20;;;0.30;;
11709;SDS011;5911;51.036;6.972;2023-04-01T04:47:44;0.30;;;0.20;;
11709;SDS011;5911;51.036;6.972;2023-04-01T04:50:13;0.83;;;0.43;;
11709;SDS011;5911;51.036;6.972;2023-04-01T04:52:43;0.63;;;0.30;;
11709;SDS011;5911;51.036;6.972;2023-04-01T04:55:11;0.53;;;0.20;;
11709;SDS011;5911;51.036;6.972;2023-04-01T04:57:41;1.47;;;0.30;;
11709;SDS011;5911;51.036;6.972;2023-04-01T05:00:09;0.30;;;0.30;;
11709;SDS011;5911;51.036;6.972;2023-04-01T05:03:03;0.20;;;0.20;;
11709;SDS011;5911;51.036;6.972;2023-04-01T05:05:33;0.43;;;0.40;;
11709;SDS011;5911;51.036;6.972;2023-04-01T05:08:02;1.40;;;0.40;;
11709;SDS011;5911;51.036;6.972;2023-04-01T05:10:30;0.97;;;0.57;;
11709;SDS011;5911;51.036;6.972;2023-04-01T05:12:59;0.33;;;0.30;;
11709;SDS011;5911;51.036;6.972;2023-04-01T05:15:26;0.40;;;0.40;;
11709;SDS011;5911;51.036;6.972;2023-04-01T05:17:54;0.80;;;0.60;;
11709;SDS011;5911;51.036;6.972;2023-04-01T05:20:23;1.27;;;0.60;;
11709;SDS011;5911;51.036;6.972;2023-04-01T05:22:56;0.43;;;0.43;;
11709;SDS011;5911;51.036;6.972;2023-04-01T05:25:24;1.23;;;0.60;;
11709;SDS011;5911;51.036;6.972;2023-04-01T05:27:53;0.90;;;0.73;;
11709;SDS011;5911;51.036;6.972;2023-04-01T05:30:22;0.40;;;0.40;;
11709;SDS011;5911;51.036;6.972;2023-04-01T05:33:19;1.17;;;0.40;;
11709;SDS011;5911;51.036;6.972;2023-04-01T05:35:47;4.27;;;0.70;;
11709;SDS011;5911;51.036;6.972;2023-04-01T05:38:18;0.57;;;0.50;;
11709;SDS011;5911;51.036;6.972;2023-04-01T05:40:46;0.60;;;0.60;;
11709;SDS011;5911;51.036;6.972;2023-04-01T05:43:14;1.77;;;0.67;;
11709;SDS011;5911;51.036;6.972;2023-04-01T05:45:45;0.63;;;0.63;;
11709;SDS011;5911;51.036;6.972;2023-04-01T05:48:13;1.20;;;0.80;;
11709;SDS011;5911;51.036;6.972;2023-04-01T05:50:41;0.83;;;0.67;;
11709;SDS011;5911;51.036;6.972;2023-04-01T05:53:10;0.50;;;0.50;;
11709;SDS011;5911;51.036;6.972;2023-04-01T05:55:42;1.30;;;0.67;;
11709;SDS011;5911;51.036;6.972;2023-04-01T05:58:10;0.60;;;0.60;;
11709;SDS011;5911;51.036;6.972;2023-04-01T06:00:41;0.93;;;0.70;;
11709;SDS011;5911;51.036;6.972;2023-04-01T06:03:10;0.77;;;0.60;;
11709;SDS011;5911;51.036;6.972;2023-04-01T06:05:39;1.17;;;0.70;;
11709;SDS011;5911;51.036;6.972;2023-04-01T06:08:12;1.13;;;0.67;;
11709;SDS011;5911;51.036;6.972;2023-04-01T06:10:55;0.60;;;0.60;;
11709;SDS011;5911;51.036;6.972;2023-04-01T06:16:28;0.60;;;0.60;;
11709;SDS011;5911;51.036;6.972;2023-04-01T06:19:13;0.60;;;0.60;;
11709;SDS011;5911;51.036;6.972;2023-04-01T06:25:02;1.23;;;0.70;;
11709;SDS011;5911;51.036;6.972;2023-04-01T06:27:50;1.23;;;0.70;;
11709;SDS011;5911;51.036;6.972;2023-04-01T06:30:33;1.30;;;0.60;;
11709;SDS011;5911;51.036;6.972;2023-04-01T06:36:15;0.70;;;0.70;;
11709;SDS011;5911;51.036;6.972;2023-04-01T06:38:56;0.77;;;0.70;;
11709;SDS011;5911;51.036;6.972;2023-04-01T06:42:02;0.80;;;0.70;;
11709;SDS011;5911;51.036;6.972;2023-04-01T06:44:56;1.07;;;0.80;;
11709;SDS011;5911;51.036;6.972;2023-04-01T06:48:16;0.73;;;0.70;;
11709;SDS011;5911;51.036;6.972;2023-04-01T06:51:21;1.37;;;0.70;;
11709;SDS011;5911;51.036;6.972;2023-04-01T06:54:17;1.07;;;0.80;;
11709;SDS011;5911;51.036;6.972;2023-04-01T06:57:02;0.97;;;0.80;;
11709;SDS011;5911;51.036;6.972;2023-04-01T06:59:39;1.70;;;0.80;;
11709;SDS011;5911;51.036;6.972;2023-04-01T07:02:15;1.10;;;0.90;;
11709;SDS011;5911;51.036;6.972;2023-04-01T07:04:50;1.50;;;0.77;;
11709;SDS011;5911;51.036;6.972;2023-04-01T07:07:24;1.47;;;0.90;;
11709;SDS011;5911;51.036;6.972;2023-04-01T07:10:03;1.80;;;0.80;;
11709;SDS011;5911;51.036;6.972;2023-04-01T07:12:58;1.33;;;0.93;;
11709;SDS011;5911;51.036;6.972;2023-04-01T07:16:11;1.10;;;1.00;;
11709;SDS011;5911;51.036;6.972;2023-04-01T07:18:44;1.83;;;1.17;;
11709;SDS011;5911;51.036;6.972;2023-04-01T07:21:22;1.53;;;1.00;;
11709;SDS011;5911;51.036;6.972;2023-04-01T07:23:56;2.83;;;1.10;;
11709;SDS011;5911;51.036;6.972;2023-04-01T07:26:34;2.13;;;1.20;;
11709;SDS011;5911;51.036;6.972;2023-04-01T07:29:23;2.50;;;1.30;;
11709;SDS011;5911;51.036;6.972;2023-04-01T07:34:59;1.93;;;1.30;;
11709;SDS011;5911;51.036;6.972;2023-04-01T07:37:45;4.03;;;1.60;;
11709;SDS011;5911;51.036;6.972;2023-04-01T07:40:24;1.83;;;1.47;;
11709;SDS011;5911;51.036;6.972;2023-04-01T07:43:13;2.07;;;1.50;;
11709;SDS011;5911;51.036;6.972;2023-04-01T07:46:04;1.60;;;1.50;;
11709;SDS011;5911;51.036;6.972;2023-04-01T07:48:41;1.60;;;1.50;;
11709;SDS011;5911;51.036;6.972;2023-04-01T07:51:19;2.13;;;1.30;;
11709;SDS011;5911;51.036;6.972;2023-04-01T07:53:53;1.50;;;1.40;;
11709;SDS011;5911;51.036;6.972;2023-04-01T07:56:30;2.40;;;1.80;;
11709;SDS011;5911;51.036;6.972;2023-04-01T07:59:05;1.63;;;1.47;;
11709;SDS011;5911;51.036;6.972;2023-04-01T08:01:58;1.80;;;1.50;;
11709;SDS011;5911;51.036;6.972;2023-04-01T08:04:39;2.20;;;1.60;;
11709;SDS011;5911;51.036;6.972;2023-04-01T08:07:20;1.63;;;1.53;;
11709;SDS011;5911;51.036;6.972;2023-04-01T08:10:19;2.10;;;1.40;;
11709;SDS011;5911;51.036;6.972;2023-04-01T08:13:13;1.77;;;1.50;;
11709;SDS011;5911;51.036;6.972;2023-04-01T08:16:12;2.97;;;1.60;;
11709;SDS011;5911;51.036;6.972;2023-04-01T08:18:53;3.20;;;1.30;;
11709;SDS011;5911;51.036;6.972;2023-04-01T08:21:27;2.60;;;1.63;;
11709;SDS011;5911;51.036;6.972;2023-04-01T08:24:05;4.13;;;1.50;;
11709;SDS011;5911;51.036;6.972;2023-04-01T08:26:41;1.40;;;1.30;;
11709;SDS011;5911;51.036;6.972;2023-04-01T08:29:14;1.77;;;1.23;;
11709;SDS011;5911;51.036;6.972;2023-04-01T08:31:48;1.17;;;1.07;;
11709;SDS011;5911;51.036;6.972;2023-04-01T08:34:19;1.20;;;1.10;;
11709;SDS011;5911;51.036;6.972;2023-04-01T08:36:57;1.23;;;1.10;;
11709;SDS011;5911;51.036;6.972;2023-04-01T08:39:31;1.53;;;1.30;;
11709;SDS011;5911;51.036;6.972;2023-04-01T08:42:10;1.40;;;1.10;;
11709;SDS011;5911;51.036;6.972;2023-04-01T08:45:06;2.10;;;1.60;;
11709;SDS011;5911;51.036;6.972;2023-04-01T08:48:02;1.73;;;1.10;;
11709;SDS011;5911;51.036;6.972;2023-04-01T08:51:01;1.43;;;1.33;;
11709;SDS011;5911;51.036;6.972;2023-04-01T08:54:03;1.63;;;1.00;;
11709;SDS011;5911;51.036;6.972;2023-04-01T08:56:53;1.20;;;1.00;;
11709;SDS011;5911;51.036;6.972;2023-04-01T08:59:32;1.37;;;1.03;;
11709;SDS011;5911;51.036;6.972;2023-04-01T09:02:56;2.40;;;1.20;;
11709;SDS011;5911;51.036;6.972;2023-04-01T09:06:00;1.13;;;1.03;;
11709;SDS011;5911;51.036;6.972;2023-04-01T09:08:44;0.90;;;0.90;;
11709;SDS011;5911;51.036;6.972;2023-04-01T09:11:28;1.10;;;1.00;;
11709;SDS011;5911;51.036;6.972;2023-04-01T09:20:35;1.27;;;1.07;;
11709;SDS011;5911;51.036;6.972;2023-04-01T09:23:18;2.40;;;1.00;;
11709;SDS011;5911;51.036;6.972;2023-04-01T09:26:07;1.00;;;0.90;;
11709;SDS011;5911;51.036;6.972;2023-04-01T09:28:47;1.70;;;1.23;;
11709;SDS011;5911;51.036;6.972;2023-04-01T09:31:36;1.57;;;1.10;;
11709;SDS011;5911;51.036;6.972;2023-04-01T09:34:52;1.37;;;1.20;;
11709;SDS011;5911;51.036;6.972;2023-04-01T09:37:30;1.47;;;1.10;;
11709;SDS011;5911;51.036;6.972;2023-04-01T09:40:13;1.83;;;1.20;;
11709;SDS011;5911;51.036;6.972;2023-04-01T09:43:02;2.10;;;1.43;;
11709;SDS011;5911;51.036;6.972;2023-04-01T09:45:44;1.77;;;1.67;;
11709;SDS011;5911;51.036;6.972;2023-04-01T09:48:29;1.80;;;1.70;;
11709;SDS011;5911;51.036;6.972;2023-04-01T09:51:26;2.30;;;2.07;;
11709;SDS011;5911;51.036;6.972;2023-04-01T09:54:08;2.27;;;2.07;;
11709;SDS011;5911;51.036;6.972;2023-04-01T09:56:52;2.20;;;2.00;;
11709;SDS011;5911;51.036;6.972;2023-04-01T09:59:58;2.20;;;2.00;;
11709;SDS011;5911;51.036;6.972;2023-04-01T10:15:50;3.07;;;2.23;;
11709;SDS011;5911;51.036;6.972;2023-04-01T10:18:42;4.03;;;1.83;;
11709;SDS011;5911;51.036;6.972;2023-04-01T10:24:55;1.73;;;1.63;;
11709;SDS011;5911;51.036;6.972;2023-04-01T10:27:56;2.00;;;1.90;;
11709;SDS011;5911;51.036;6.972;2023-04-01T10:31:13;2.20;;;1.70;;
11709;SDS011;5911;51.036;6.972;2023-04-01T10:34:08;1.70;;;1.60;;
11709;SDS011;5911;51.036;6.972;2023-04-01T10:36:53;2.97;;;2.07;;
11709;SDS011;5911;51.036;6.972;2023-04-01T10:43:12;3.57;;;2.27;;
11709;SDS011;5911;51.036;6.972;2023-04-01T10:46:16;3.00;;;2.07;;
11709;SDS011;5911;51.036;6.972;2023-04-01T10:49:07;2.23;;;2.03;;
11709;SDS011;5911;51.036;6.972;2023-04-01T10:52:18;2.90;;;2.43;;
11709;SDS011;5911;51.036;6.972;2023-04-01T10:55:27;4.47;;;2.60;;
11709;SDS011;5911;51.036;6.972;2023-04-01T11:05:56;3.20;;;2.90;;
11709;SDS011;5911;51.036;6.972;2023-04-01T11:09:02;3.43;;;2.93;;
11709;SDS011;5911;51.036;6.972;2023-04-01T11:12:10;3.20;;;3.00;;
11709;SDS011;5911;51.036;6.972;2023-04-01T11:15:06;2.87;;;2.67;;
11709;SDS011;5911;51.036;6.972;2023-04-01T11:18:24;2.63;;;2.43;;
11709;SDS011;5911;51.036;6.972;2023-04-01T11:21:36;2.63;;;2.43;;
11709;SDS011;5911;51.036;6.972;2023-04-01T11:27:33;2.77;;;2.57;;
11709;SDS011;5911;51.036;6.972;2023-04-01T11:30:28;2.93;;;2.60;;
11709;SDS011;5911;51.036;6.972;2023-04-01T11:33:09;2.70;;;2.50;;
11709;SDS011;5911;51.036;6.972;2023-04-01T11:35:49;3.43;;;3.13;;
11709;SDS011;5911;51.036;6.972;2023-04-01T11:38:31;3.97;;;3.30;;
11709;SDS011;5911;51.036;6.972;2023-04-01T11:41:31;2.93;;;2.53;;
11709;SDS011;5911;51.036;6.972;2023-04-01T11:44:33;3.43;;;3.20;;
11709;SDS011;5911;51.036;6.972;2023-04-01T11:47:19;4.73;;;3.00;;
11709;SDS011;5911;51.036;6.972;2023-04-01T11:49:58;2.47;;;2.33;;
11709;SDS011;5911;51.036;6.972;2023-04-01T11:52:47;5.53;;;3.20;;
11709;SDS011;5911;51.036;6.972;2023-04-01T11:55:31;3.00;;;2.80;;
11709;SDS011;5911;51.036;6.972;2023-04-01T11:58:19;3.13;;;2.87;;
11709;SDS011;5911;51.036;6.972;2023-04-01T12:01:01;2.70;;;2.50;;
11709;SDS011;5911;51.036;6.972;2023-04-01T12:03:42;2.60;;;2.13;;
11709;SDS011;5911;51.036;6.972;2023-04-01T12:06:22;2.70;;;2.50;;
11709;SDS011;5911;51.036;6.972;2023-04-01T12:09:01;3.00;;;2.73;;
11709;SDS011;5911;51.036;6.972;2023-04-01T12:11:37;2.90;;;2.70;;
11709;SDS011;5911;51.036;6.972;2023-04-01T12:14:10;3.00;;;2.80;;
11709;SDS011;5911;51.036;6.972;2023-04-01T12:16:49;2.53;;;2.33;;
11709;SDS011;5911;51.036;6.972;2023-04-01T12:19:26;2.67;;;2.47;;
11709;SDS011;5911;51.036;6.972;2023-04-01T12:22:12;2.70;;;2.50;;
11709;SDS011;5911;51.036;6.972;2023-04-01T12:24:52;3.50;;;2.53;;
11709;SDS011;5911;51.036;6.972;2023-04-01T12:27:44;2.73;;;2.53;;
11709;SDS011;5911;51.036;6.972;2023-04-01T12:30:26;2.73;;;2.50;;
11709;SDS011;5911;51.036;6.972;2023-04-01T12:33:20;2.13;;;2.03;;
11709;SDS011;5911;51.036;6.972;2023-04-01T12:36:00;2.80;;;2.60;;
11709;SDS011;5911;51.036;6.972;2023-04-01T12:38:43;2.57;;;2.20;;
11709;SDS011;5911;51.036;6.972;2023-04-01T12:41:24;2.67;;;2.47;;
11709;SDS011;5911;51.036;6.972;2023-04-01T12:47:09;2.50;;;2.33;;
11709;SDS011;5911;51.036;6.972;2023-04-01T12:50:05;2.57;;;2.37;;
11709;SDS011;5911;51.036;6.972;2023-04-01T12:52:58;2.87;;;2.67;;
11709;SDS011;5911;51.036;6.972;2023-04-01T12:55:38;2.90;;;2.60;;
11709;SDS011;5911;51.036;6.972;2023-04-01T13:01:30;1.93;;;1.83;;
11709;SDS011;5911;51.036;6.972;2023-04-01T13:04:33;2.20;;;2.10;;
11709;SDS011;5911;51.036;6.972;2023-04-01T13:07:25;2.40;;;2.30;;
11709;SDS011;5911;51.036;6.972;2023-04-01T13:10:07;2.80;;;2.60;;
11709;SDS011;5911;51.036;6.972;2023-04-01T13:12:57;2.80;;;2.60;;
11709;SDS011;5911;51.036;6.972;2023-04-01T13:15:37;2.70;;;2.53;;
11709;SDS011;5911;51.036;6.972;2023-04-01T13:18:14;2.80;;;2.60;;
11709;SDS011;5911;51.036;6.972;2023-04-01T13:20:49;2.63;;;2.43;;
11709;SDS011;5911;51.036;6.972;2023-04-01T13:23:42;4.17;;;2.53;;
11709;SDS011;5911;51.036;6.972;2023-04-01T13:26:21;2.67;;;2.47;;
11709;SDS011;5911;51.036;6.972;2023-04-01T13:28:56;2.80;;;2.60;;
11709;SDS011;5911;51.036;6.972;2023-04-01T13:31:35;3.20;;;2.90;;
11709;SDS011;5911;51.036;6.972;2023-04-01T13:34:16;3.23;;;3.03;;
11709;SDS011;5911;51.036;6.972;2023-04-01T13:36:56;3.10;;;2.77;;
11709;SDS011;5911;51.036;6.972;2023-04-01T13:39:39;3.33;;;3.03;;
11709;SDS011;5911;51.036;6.972;2023-04-01T13:42:17;3.70;;;3.40;;
11709;SDS011;5911;51.036;6.972;2023-04-01T13:44:53;6.37;;;4.43;;
11709;SDS011;5911;51.036;6.972;2023-04-01T13:47:39;3.73;;;3.50;;
11709;SDS011;5911;51.036;6.972;2023-04-01T13:50:34;3.83;;;3.53;;
11709;SDS011;5911;51.036;6.972;2023-04-01T13:56:35;4.40;;;4.00;;
11709;SDS011;5911;51.036;6.972;2023-04-01T13:59:22;3.90;;;3.60;;
11709;SDS011;5911;51.036;6.972;2023-04-01T14:02:10;3.80;;;3.50;;
11709;SDS011;5911;51.036;6.972;2023-04-01T14:04:59;4.10;;;3.70;;
11709;SDS011;5911;51.036;6.972;2023-04-01T14:07:48;4.00;;;3.70;;
11709;SDS011;5911;51.036;6.972;2023-04-01T14:10:24;3.80;;;3.50;;
11709;SDS011;5911;51.036;6.972;2023-04-01T14:13:09;3.53;;;3.20;;
11709;SDS011;5911;51.036;6.972;2023-04-01T14:15:55;3.63;;;3.33;;
11709;SDS011;5911;51.036;6.972;2023-04-01T14:18:43;4.07;;;3.67;;
11709;SDS011;5911;51.036;6.972;2023-04-01T14:21:46;3.27;;;3.07;;
11709;SDS011;5911;51.036;6.972;2023-04-01T14:24:32;3.73;;;3.40;;
11709;SDS011;5911;51.036;6.972;2023-04-01T14:27:15;2.83;;;2.63;;
11709;SDS011;5911;51.036;6.972;2023-04-01T14:29:59;3.23;;;3.03;;
11709;SDS011;5911;51.036;6.972;2023-04-01T14:32:45;3.50;;;3.20;;
11709;SDS011;5911;51.036;6.972;2023-04-01T14:35:22;3.40;;;3.10;;
11709;SDS011;5911;51.036;6.972;2023-04-01T14:38:04;3.30;;;3.00;;
11709;SDS011;5911;51.036;6.972;2023-04-01T14:40:55;3.70;;;3.40;;
11709;SDS011;5911;51.036;6.972;2023-04-01T14:43:38;3.73;;;3.40;;
11709;SDS011;5911;51.036;6.972;2023-04-01T14:46:40;3.40;;;3.17;;
11709;SDS011;5911;51.036;6.972;2023-04-01T14:49:30;3.80;;;3.50;;
11709;SDS011;5911;51.036;6.972;2023-04-01T14:52:04;3.97;;;3.57;;
11709;SDS011;5911;51.036;6.972;2023-04-01T14:54:37;4.40;;;4.00;;
11709;SDS011;5911;51.036;6.972;2023-04-01T14:57:10;4.27;;;3.87;;
11709;SDS011;5911;51.036;6.972;2023-04-01T14:59:39;4.47;;;4.07;;
11709;SDS011;5911;51.036;6.972;2023-04-01T15:02:17;4.27;;;3.97;;
11709;SDS011;5911;51.036;6.972;2023-04-01T15:05:08;4.17;;;3.77;;
11709;SDS011;5911;51.036;6.972;2023-04-01T15:10:43;5.20;;;4.70;;
11709;SDS011;5911;51.036;6.972;2023-04-01T15:13:24;4.77;;;4.30;;
11709;SDS011;5911;51.036;6.972;2023-04-01T15:16:13;4.93;;;4.43;;
11709;SDS011;5911;51.036;6.972;2023-04-01T15:18:53;4.60;;;4.20;;
11709;SDS011;5911;51.036;6.972;2023-04-01T15:24:23;4.63;;;4.23;;
11709;SDS011;5911;51.036;6.972;2023-04-01T15:26:56;4.30;;;3.97;;
11709;SDS011;5911;51.036;6.972;2023-04-01T15:32:55;4.10;;;3.80;;
11709;SDS011;5911;51.036;6.972;2023-04-01T15:35:38;4.40;;;3.80;;
11709;SDS011;5911;51.036;6.972;2023-04-01T15:38:14;4.77;;;4.03;;
11709;SDS011;5911;51.036;6.972;2023-04-01T15:40:55;4.60;;;4.20;;
11709;SDS011;5911;51.036;6.972;2023-04-01T15:43:32;4.33;;;4.03;;
11709;SDS011;5911;51.036;6.972;2023-04-01T15:49:11;4.63;;;4.20;;
11709;SDS011;5911;51.036;6.972;2023-04-01T15:51:54;4.20;;;3.80;;
11709;SDS011;5911;51.036;6.972;2023-04-01T15:54:38;4.30;;;3.90;;
11709;SDS011;5911;51.036;6.972;2023-04-01T15:57:29;4.23;;;3.83;;
11709;SDS011;5911;51.036;6.972;2023-04-01T16:05:51;4.40;;;4.00;;
11709;SDS011;5911;51.036;6.972;2023-04-01T16:08:44;3.60;;;3.30;;
11709;SDS011;5911;51.036;6.972;2023-04-01T16:11:31;4.50;;;3.50;;
11709;SDS011;5911;51.036;6.972;2023-04-01T16:14:11;5.00;;;4.30;;
11709;SDS011;5911;51.036;6.972;2023-04-01T16:16:51;4.30;;;3.90;;
11709;SDS011;5911;51.036;6.972;2023-04-01T16:19:32;4.17;;;3.80;;
11709;SDS011;5911;51.036;6.972;2023-04-01T16:22:07;4.60;;;3.93;;
11709;SDS011;5911;51.036;6.972;2023-04-01T16:24:43;4.57;;;4.17;;
11709;SDS011;5911;51.036;6.972;2023-04-01T16:27:16;4.30;;;3.33;;
11709;SDS011;5911;51.036;6.972;2023-04-01T16:29:53;4.57;;;4.00;;
11709;SDS011;5911;51.036;6.972;2023-04-01T16:32:36;4.53;;;4.07;;
11709;SDS011;5911;51.036;6.972;2023-04-01T16:38:11;3.17;;;2.97;;
11709;SDS011;5911;51.036;6.972;2023-04-01T16:40:50;4.67;;;3.60;;
11709;SDS011;5911;51.036;6.972;2023-04-01T16:43:29;3.80;;;3.40;;
11709;SDS011;5911;51.036;6.972;2023-04-01T16:46:13;3.70;;;3.40;;
11709;SDS011;5911;51.036;6.972;2023-04-01T16:49:01;3.77;;;2.87;;
11709;SDS011;5911;51.036;6.972;2023-04-01T16:51:44;3.47;;;3.17;;
11709;SDS011;5911;51.036;6.972;2023-04-01T16:54:17;3.50;;;3.20;;
11709;SDS011;5911;51.036;6.972;2023-04-01T16:57:01;3.63;;;3.33;;
11709;SDS011;5911;51.036;6.972;2023-04-01T16:59:34;4.10;;;3.80;;
11709;SDS011;5911;51.036;6.972;2023-04-01T17:02:04;4.20;;;3.90;;
11709;SDS011;5911;51.036;6.972;2023-04-01T17:04:39;5.50;;;3.97;;
11709;SDS011;5911;51.036;6.972;2023-04-01T17:07:13;4.50;;;4.10;;
11709;SDS011;5911;51.036;6.972;2023-04-01T17:09:51;4.20;;;3.77;;
11709;SDS011;5911;51.036;6.972;2023-04-01T17:12:34;4.20;;;3.90;;
11709;SDS011;5911;51.036;6.972;2023-04-01T17:15:10;3.90;;;3.60;;
11709;SDS011;5911;51.036;6.972;2023-04-01T17:17:49;3.80;;;3.50;;
11709;SDS011;5911;51.036;6.972;2023-04-01T17:20:27;5.37;;;3.87;;
11709;SDS011;5911;51.036;6.972;2023-04-01T17:23:05;4.10;;;3.70;;
11709;SDS011;5911;51.036;6.972;2023-04-01T17:25:46;4.30;;;3.90;;
11709;SDS011;5911;51.036;6.972;2023-04-01T17:28:36;3.77;;;3.47;;
11709;SDS011;5911;51.036;6.972;2023-04-01T17:31:14;4.53;;;3.80;;
11709;SDS011;5911;51.036;6.972;2023-04-01T17:33:57;4.30;;;3.90;;
11709;SDS011;5911;51.036;6.972;2023-04-01T17:36:36;3.80;;;3.50;;
11709;SDS011;5911;51.036;6.972;2023-04-01T17:39:30;3.67;;;3.37;;